Data for 08/27/2015

Time Sea-Level Adjusted Pressure Absolute Pressure Temperature Relative Humidity Dew Point   
(mb) (inHg) (mb) (inHg) (C) (F) (%) (C) (F)
00:05 1022 30.18 851 25.13 19.5 67.1 43 6.8 44.3
00:10 1022 30.18 851 25.13 19.5 67.1 44 7.1 44.7
00:15 1022 30.18 851 25.13 19.2 66.6 45 7 44.6
00:20 1022 30.18 851 25.13 18.9 66.1 46 7.1 44.7
00:25 1022 30.18 851 25.13 18.8 65.8 46 7 44.6
00:30 1022 30.18 851 25.13 18.8 65.8 46 7 44.6
00:35 1022 30.18 851 25.13 18.4 65.2 47 7.1 44.7
00:40 1022 30.18 851 25.13 18.3 65 48 7.1 44.8
00:45 1022 30.18 851 25.13 18.1 64.5 49 7.2 45
00:50 1022 30.18 851 25.13 17.7 63.9 50 7.2 45
00:55 1022 30.18 851 25.13 17.6 63.7 49 6.9 44.4
01:00 1022 30.18 851 25.13 17.9 64.3 48 6.8 44.3
01:05 1022 30.18 851 25.13 18.1 64.5 48 7.1 44.7
01:10 1022 30.18 851 25.13 17.9 64.1 49 7.1 44.8
01:15 1022 30.18 851 25.13 17.7 63.9 50 7.2 45
01:20 1022 30.18 851 25.13 17.3 63.2 52 7.4 45.3
01:25 1022 30.18 851 25.13 17.1 62.8 51 6.9 44.4
01:30 1022 30.18 851 25.13 17.4 63.4 50 7 44.6
01:35 1022 30.18 851 25.13 17.6 63.8 48 6.6 43.9
01:40 1021 30.15 851 25.13 17.8 64.1 49 7.1 44.7
01:45 1021 30.15 851 25.13 17.8 64 47 6.5 43.8
01:50 1021 30.15 851 25.13 18.3 64.9 45 6.4 43.5
01:55 1022 30.18 851 25.13 18.6 65.4 46 6.7 44.1
02:00 1022 30.18 851 25.13 18.3 64.9 47 6.8 44.3
02:05 1022 30.18 851 25.13 18.1 64.6 47 6.7 44
02:10 1022 30.18 851 25.13 18.2 64.7 47 6.7 44.1
02:15 1022 30.18 851 25.13 18.1 64.6 46 6.4 43.5
02:20 1022 30.18 851 25.13 18.3 64.9 46 6.5 43.8
02:25 1022 30.18 851 25.13 18.4 65.1 45 6.4 43.6
02:30 1022 30.18 851 25.13 18.5 65.2 45 6.4 43.4
02:35 1022 30.18 851 25.13 18.6 65.5 45 6.4 43.5
02:40 1022 30.18 851 25.13 18.6 65.4 45 6.7 44
02:45 1022 30.18 851 25.13 18.1 64.7 48 7 44.6
02:50 1022 30.18 851 25.13 17.7 63.8 49 6.9 44.4
02:55 1022 30.18 851 25.13 17.5 63.4 49 6.7 44
03:00 1022 30.18 851 25.13 17.5 63.6 48 6.6 43.8
03:05 1022 30.18 851 25.13 17.6 63.6 48 6.7 44
03:10 1022 30.18 851 25.13 17.4 63.3 49 6.8 44.2
03:15 1022 30.18 851 25.13 17.3 63.1 50 6.7 44.1
03:20 1022 30.18 851 25.13 17.2 63 49 6.6 43.9
03:25 1022 30.18 851 25.13 17.2 63 48 6.4 43.5
03:30 1022 30.18 851 25.13 17.4 63.2 49 6.5 43.7
03:35 1022 30.18 851 25.13 17.4 63.4 49 6.6 43.9
03:40 1022 30.18 851 25.13 17.3 63.1 49 6.7 44
03:45 1022 30.18 851 25.13 17.4 63.2 51 7.1 44.8
03:50 1022 30.18 851 25.13 17.4 63.3 49 6.8 44.2
03:55 1022 30.18 851 25.13 17.3 63.2 49 6.7 44.1
04:00 1022 30.18 851 25.13 17.2 63 49 6.5 43.7
04:05 1022 30.18 851 25.13 17.2 63 49 6.6 43.8
04:10 1022 30.18 851 25.13 17.2 62.9 50 6.7 44
04:15 1022 30.18 851 25.13 16.9 62.5 50 6.6 43.8
04:20 1022 30.18 851 25.13 16.9 62.3 51 6.7 44.1
04:25 1022 30.18 851 25.13 16.8 62.2 51 6.7 44
04:30 1022 30.18 851 25.13 16.6 61.9 51 6.6 43.8
04:35 1022 30.18 851 25.13 16.5 61.7 51 6.5 43.7
04:40 1022 30.18 851 25.13 16.7 62.1 50 6.3 43.4
04:45 1022 30.18 851 25.13 16.8 62.2 51 6.6 43.9
04:50 1022 30.18 851 25.13 16.5 61.6 53 7.1 44.8
04:55 1022 30.18 851 25.13 16.3 61.3 58 7.9 46.3
05:00 1022 30.18 851 25.13 16.1 61 54 7 44.5
05:05 1022 30.18 851 25.13 15.8 60.5 55 6.9 44.4
05:10 1022 30.18 851 25.13 15.8 60.5 55 6.8 44.3
05:15 1022 30.18 851 25.13 15.7 60.3 56 7 44.5
05:20 1022 30.18 851 25.13 15.8 60.4 55 6.8 44.2
05:25 1022 30.18 852 25.16 15.9 60.5 61 8.3 47
05:30 1022 30.18 852 25.16 15.7 60.2 58 7.6 45.6
05:35 1022 30.18 852 25.16 14.9 58.8 62 7.8 46
05:40 1022 30.18 852 25.16 14.5 58.1 61 7.2 44.9
05:45 1022 30.18 852 25.16 14.7 58.5 60 7.2 44.9
05:50 1022 30.18 852 25.16 14.9 58.9 58 6.9 44.4
05:55 1022 30.18 852 25.16 15.3 59.6 58 7.3 45.1
06:00 1022 30.18 852 25.16 15.1 59.2 59 7.1 44.8
06:05 1022 30.18 852 25.16 15.2 59.3 57 6.8 44.3
06:10 1022 30.18 852 25.16 15.2 59.3 58 7 44.5
06:15 1022 30.18 852 25.16 15.1 59.2 58 6.9 44.4
06:20 1022 30.18 852 25.16 15 59 58 6.9 44.5
06:25 1022 30.18 852 25.16 14.9 58.8 59 7 44.5
06:30 1022 30.18 852 25.16 14.9 58.8 58 6.7 44.1
06:35 1022 30.18 852 25.16 15.1 59.1 57 6.7 44.1
06:40 1022 30.18 852 25.16 15.3 59.6 56 6.6 44
06:45 1022 30.18 852 25.16 15.5 59.9 55 6.7 44
06:50 1023 30.21 852 25.16 15.6 60.1 55 6.7 44
06:55 1023 30.21 852 25.16 15.9 60.5 53 6.5 43.7
07:00 1023 30.21 852 25.16 16.1 61 54 6.8 44.3
07:05 1023 30.21 852 25.16 16.1 61 54 6.8 44.3
07:10 1023 30.21 852 25.16 16.2 61.2 53 6.8 44.2
07:15 1023 30.21 852 25.16 16.4 61.5 54 7.1 44.8
07:20 1023 30.21 852 25.16 16.6 61.9 52 6.7 44
07:25 1023 30.21 852 25.16 16.8 62.2 52 7 44.6
07:30 1023 30.21 852 25.16 16.7 62.1 53 7.1 44.7
07:35 1023 30.21 852 25.16 16.9 62.3 54 7.7 45.8
07:40 1023 30.21 852 25.16 17.1 62.8 52 7.3 45.1
07:45 1023 30.21 852 25.16 17.8 64 51 7.5 45.5
07:50 1023 30.21 852 25.16 18.2 64.8 49 7.5 45.6
07:55 1023 30.21 852 25.16 18.6 65.5 49 7.9 46.3
08:00 1023 30.21 852 25.16 19 66.3 49 8.2 46.8
08:05 1023 30.21 852 25.16 19.1 66.4 49 8.2 46.7
08:10 1023 30.21 852 25.16 19.2 66.5 49 8.4 47.1
08:15 1023 30.21 852 25.16 19.1 66.4 49 8.4 47.1
08:20 1023 30.21 852 25.16 19.3 66.7 52 9.3 48.7
08:25 1023 30.21 852 25.16 19.5 67.1 47 8.1 46.6
08:30 1023 30.21 852 25.16 19.8 67.7 45 7.7 45.9
08:35 1023 30.21 852 25.16 20.1 68.2 45 7.9 46.3
08:40 1023 30.21 852 25.16 19.9 67.9 47 8.4 47.2
08:45 1023 30.21 852 25.16 20.1 68.2 44 7.8 46
08:50 1023 30.21 852 25.16 20.5 68.8 43 7.7 45.9
08:55 1023 30.21 852 25.16 20.6 69.1 44 8.2 46.7
09:00 1023 30.21 852 25.16 20.6 69 44 8 46.5
09:05 1023 30.21 853 25.19 20.3 68.6 46 8.6 47.4
09:10 1023 30.21 853 25.19 20.3 68.5 46 8.4 47.1
09:15 1023 30.21 853 25.19 20.4 68.8 44 8 46.4
09:20 1024 30.24 853 25.19 20.4 68.8 47 8.9 48
09:25 1024 30.24 853 25.19 20.8 69.4 48 9.4 48.9
09:30 1024 30.24 853 25.19 20.8 69.5 45 8.7 47.7
09:35 1024 30.24 853 25.19 20.9 69.7 43 8 46.4
09:40 1024 30.24 853 25.19 21.1 70 44 8.4 47.2
09:45 1024 30.24 853 25.19 21.1 70 43 8.2 46.8
09:50 1024 30.24 853 25.19 21.4 70.4 40 7.4 45.3
09:55 1024 30.24 853 25.19 22 71.5 39 7.4 45.4
10:00 1024 30.24 853 25.19 22.1 71.8 37 6.8 44.3
10:05 1024 30.24 853 25.19 22.3 72.2 38 7.5 45.6
10:10 1024 30.24 853 25.19 22.5 72.4 38 7.6 45.6
10:15 1024 30.24 853 25.19 22.6 72.7 37 7.6 45.6
10:20 1024 30.24 853 25.19 22.6 72.6 39 8 46.4
10:25 1024 30.24 853 25.19 22.2 72 39 7.9 46.3
10:30 1024 30.24 853 25.19 21.6 70.9 42 8.2 46.7
10:35 1024 30.24 853 25.19 21.3 70.4 42 8.2 46.7
10:40 1024 30.24 853 25.19 21.4 70.4 42 8.2 46.7
10:45 1024 30.24 853 25.19 21.2 70.2 45 8.8 47.8
10:50 1024 30.24 854 25.22 21.1 69.9 51 10.6 51
10:55 1024 30.24 853 25.19 21.1 69.9 51 10.7 51.3
11:00 1024 30.24 853 25.19 20.9 69.6 51 10.6 51.1
11:05 1024 30.24 853 25.19 20.7 69.3 47 9.2 48.5
11:10 1024 30.24 853 25.19 20.5 69 50 9.8 49.7
11:15 1024 30.24 854 25.22 20.5 68.9 47 8.9 48.1
11:20 1024 30.24 854 25.22 20.6 69.1 46 8.7 47.7
11:25 1024 30.24 854 25.22 21.3 70.3 36 5.9 42.7
11:30 1024 30.24 853 25.19 21.2 70.2 39 6.7 44.1
11:35 1024 30.24 853 25.19 21 69.9 37 5.9 42.5
11:40 1024 30.24 853 25.19 21 69.8 40 7.1 44.8
11:45 1024 30.24 853 25.19 20.5 69 39 6.2 43.2
11:50 1024 30.24 853 25.19 20.4 68.8 41 7 44.5
11:55 1024 30.24 853 25.19 20.3 68.5 40 6.5 43.6
12:00 1024 30.24 853 25.19 20.3 68.5 40 6.5 43.7
12:05 1024 30.24 853 25.19 20 68 42 7 44.6
12:10 1024 30.24 853 25.19 19.9 67.9 42 6.8 44.2
12:15 1024 30.24 853 25.19 20.2 68.4 42 7.2 45
12:20 1023 30.21 853 25.19 20.5 68.9 40 6.6 43.9
12:25 1023 30.21 853 25.19 20.9 69.7 41 7.3 45.1
12:30 1023 30.21 853 25.19 21.2 70.2 40 7.1 44.8
12:35 1023 30.21 853 25.19 21.5 70.8 44 8.8 47.9
12:40 1023 30.21 853 25.19 22 71.5 38 7.3 45.2
12:45 1023 30.21 853 25.19 22.5 72.5 39 7.9 46.2
12:50 1023 30.21 853 25.19 22.8 73 37 7.4 45.3
12:55 1023 30.21 852 25.16 23 73.4 34 6.6 43.9
13:00 1023 30.21 852 25.16 23.7 74.6 32 6.4 43.5
13:05 1023 30.21 852 25.16 23.8 74.8 33 6.6 43.9
13:10 1023 30.21 852 25.16 23.8 74.8 32 6.1 43
13:15 1023 30.21 852 25.16 23.9 75 32 6.4 43.4
13:20 1023 30.21 852 25.16 24.1 75.4 31 6.2 43.1
13:25 1023 30.21 852 25.16 24.3 75.7 29 5.2 41.4
13:30 1023 30.21 852 25.16 24.4 75.9 29 5.4 41.6
13:35 1023 30.21 852 25.16 24.5 76.1 29 5.3 41.5
13:40 1023 30.21 852 25.16 24.6 76.2 27 4.7 40.4
13:45 1023 30.21 852 25.16 25 77 28 5.2 41.4
13:50 1023 30.21 852 25.16 24.9 76.8 27 4.9 40.9
13:55 1023 30.21 852 25.16 25 77 27 5.1 41.2
14:00 1023 30.21 852 25.16 25.4 77.7 26 4.6 40.3
14:05 1022 30.18 852 25.16 25.6 78.1 26 5 41
14:10 1022 30.18 852 25.16 25.6 78 26 4.8 40.7
14:15 1022 30.18 851 25.13 25.6 78 24 3.7 38.7
14:20 1022 30.18 851 25.13 25.8 78.5 24 4.2 39.5
14:25 1022 30.18 851 25.13 25.8 78.4 26 5.3 41.5
14:30 1022 30.18 851 25.13 26.1 79 24 4 39.3
14:35 1022 30.18 851 25.13 26.4 79.5 23 3.8 38.8
14:40 1022 30.18 851 25.13 26.3 79.3 21 2.3 36.1
14:45 1022 30.18 851 25.13 26.4 79.5 21 2.6 36.7
14:50 1022 30.18 851 25.13 26.8 80.3 22 3.6 38.4
14:55 1021 30.15 851 25.13 27 80.6 22 3.8 38.8
15:00 1021 30.15 851 25.13 27.1 80.8 21 3.2 37.7
15:05 1021 30.15 851 25.13 27.3 81.1 21 3.5 38.3
15:10 1021 30.15 851 25.13 27.4 81.4 21 3.6 38.5
15:15 1021 30.15 851 25.13 27.5 81.5 20 3.1 37.6
15:20 1021 30.15 851 25.13 27.3 81.2 21 3.4 38.2
15:25 1021 30.15 850 25.1 27.6 81.7 17 0.3 32.6
15:30 1021 30.15 850 25.1 27.5 81.5 18 1.7 35.1
15:35 1021 30.15 850 25.1 27.4 81.4 18 1.6 34.8
15:40 1021 30.15 851 25.13 27.1 80.8 21 3.1 37.6
15:45 1021 30.15 850 25.1 27.2 80.9 22 4.1 39.4
15:50 1021 30.15 850 25.1 27.2 81 19 1.6 34.9
15:55 1021 30.15 850 25.1 26.8 80.2 21 2.7 36.8
16:00 1021 30.15 850 25.1 26.5 79.7 19 1.4 34.6
16:05 1021 30.15 850 25.1 26.4 79.5 21 2.9 37.3
16:10 1021 30.15 850 25.1 26.3 79.4 22 3.1 37.7
16:15 1021 30.15 850 25.1 26.2 79.1 22 3 37.4
16:20 1021 30.15 850 25.1 26.1 79 23 3.7 38.7
16:25 1021 30.15 850 25.1 26 78.9 22 2.7 36.8
16:30 1021 30.15 850 25.1 25.9 78.7 20 1.8 35.2
16:35 1021 30.15 850 25.1 25.9 78.6 25 4.5 40.1
16:40 1021 30.15 850 25.1 26 78.8 24 4.4 40
16:45 1021 30.15 850 25.1 26.1 78.9 22 2.8 37.1
16:50 1021 30.15 850 25.1 26 78.7 24 3.9 39.1
16:55 1021 30.15 850 25.1 25.7 78.2 26 5.2 41.4
17:00 1021 30.15 850 25.1 25.6 78 26 5.1 41.2
17:05 1021 30.15 850 25.1 25.4 77.7 28 5.9 42.5
17:10 1021 30.15 850 25.1 25.2 77.4 28 5.6 42.1
17:15 1021 30.15 850 25.1 25.1 77.2 29 6 42.8
17:20 1021 30.15 850 25.1 25 77.1 30 6.6 43.9
17:25 1021 30.15 850 25.1 24.9 76.8 30 6.5 43.7
17:30 1021 30.15 850 25.1 24.7 76.5 30 6.4 43.5
17:35 1021 30.15 850 25.1 24.6 76.2 31 6.4 43.4
17:40 1021 30.15 850 25.1 24.3 75.8 32 6.9 44.5
17:45 1021 30.15 850 25.1 24.3 75.8 33 7.4 45.3
17:50 1021 30.15 851 25.13 24.3 75.7 30 6 42.8
17:55 1022 30.18 851 25.13 24.2 75.6 32 6.7 44.1
18:00 1022 30.18 851 25.13 24 75.2 28 4.4 40
18:05 1022 30.18 852 25.16 23.8 74.9 29 4.7 40.5
18:10 1022 30.18 852 25.16 23.1 73.6 47 11.5 52.7
18:15 1023 30.21 852 25.16 20 68 53 10.4 50.7
18:20 1022 30.18 852 25.16 19.3 66.8 50 8.7 47.7
18:25 1022 30.18 852 25.16 19 66.3 52 9 48.3
18:30 1022 30.18 852 25.16 19 66.2 51 8.7 47.7
18:35 1022 30.18 851 25.13 18.9 66 51 8.5 47.4
18:40 1022 30.18 851 25.13 19 66.2 49 8.2 46.7
18:45 1022 30.18 851 25.13 19.1 66.4 51 8.8 47.9
18:50 1022 30.18 851 25.13 18.5 65.3 56 9.7 49.4
18:55 1022 30.18 851 25.13 18 64.5 56 9.2 48.5
19:00 1022 30.18 851 25.13 18 64.3 53 8.5 47.2
19:05 1022 30.18 851 25.13 18.1 64.5 52 8.2 46.8
19:10 1022 30.18 851 25.13 18.3 65 50 7.7 45.9
19:15 1022 30.18 851 25.13 18.5 65.3 49 7.6 45.7
19:20 1022 30.18 851 25.13 18.7 65.6 46 7 44.6
19:25 1022 30.18 851 25.13 18.7 65.7 46 6.9 44.4
19:30 1022 30.18 851 25.13 18.8 65.8 44 6.6 43.8
19:35 1022 30.18 851 25.13 19 66.1 44 6.5 43.8
19:40 1022 30.18 851 25.13 18.8 65.8 43 6 42.8
19:45 1022 30.18 851 25.13 18.9 66.1 42 5.8 42.4
19:50 1022 30.18 851 25.13 19.1 66.4 42 6 42.8
19:55 1022 30.18 851 25.13 19.3 66.7 40 5.4 41.6
20:00 1022 30.18 851 25.13 19.3 66.7 39 5.3 41.5
20:05 1022 30.18 851 25.13 19.2 66.6 40 5.4 41.7
20:10 1022 30.18 851 25.13 19.3 66.8 39 5.1 41.1
20:15 1022 30.18 851 25.13 19.3 66.7 38 4.9 40.8
20:20 1022 30.18 851 25.13 19.4 66.9 38 4.8 40.7
20:25 1022 30.18 851 25.13 19.5 67 38 5 40.9
20:30 1022 30.18 851 25.13 19.4 67 41 5.9 42.6
20:35 1022 30.18 851 25.13 18.6 65.5 43 5.9 42.6
20:40 1022 30.18 851 25.13 18.4 65.2 42 5.4 41.7
20:45 1022 30.18 851 25.13 18.5 65.3 42 5.4 41.6
20:50 1022 30.18 851 25.13 18.5 65.2 42 5.5 41.9
20:55 1022 30.18 851 25.13 18.2 64.7 44 5.9 42.7
21:00 1022 30.18 851 25.13 17.8 64.1 43 5.3 41.5
21:05 1022 30.18 851 25.13 18 64.4 44 5.6 42.1
21:10 1022 30.18 852 25.16 17.7 63.8 47 6.3 43.3
21:15 1022 30.18 852 25.16 17.7 63.8 42 4.7 40.5
21:20 1022 30.18 852 25.16 18.4 65.2 40 4.9 40.8
21:25 1022 30.18 852 25.16 18.4 65.1 43 5.6 42.1
21:30 1022 30.18 852 25.16 17.9 64.2 43 5.3 41.6
21:35 1023 30.21 852 25.16 18.2 64.7 42 5.1 41.2
21:40 1023 30.21 852 25.16 18.4 65.2 40 4.7 40.4
21:45 1023 30.21 852 25.16 18.6 65.5 41 5.4 41.7
21:50 1024 30.24 853 25.19 18.4 65.1 43 5.6 42
21:55 1024 30.24 853 25.19 18.5 65.2 42 5.5 41.9
22:00 1024 30.24 853 25.19 18.5 65.3 44 6.3 43.3
22:05 1024 30.24 853 25.19 18.2 64.8 46 6.4 43.5
22:10 1024 30.24 853 25.19 18.1 64.6 46 6.4 43.6
22:15 1024 30.24 853 25.19 18.1 64.5 47 6.6 43.9
22:20 1024 30.24 853 25.19 17.8 64 47 6.5 43.8
22:25 1024 30.24 853 25.19 17.8 64.1 48 6.9 44.4
22:30 1024 30.24 853 25.19 17.3 63.2 50 6.8 44.2
22:35 1024 30.24 853 25.19 17.5 63.4 49 6.7 44.1
22:40 1023 30.21 853 25.19 17.7 63.8 47 6.4 43.4
22:45 1023 30.21 852 25.16 17.9 64.3 47 6.5 43.7
22:50 1023 30.21 852 25.16 18.3 65 45 6.4 43.5
22:55 1023 30.21 852 25.16 18.6 65.4 45 6.5 43.8
23:00 1023 30.21 852 25.16 18.6 65.5 46 6.8 44.2
23:05 1023 30.21 852 25.16 18.3 64.9 47 6.8 44.3
23:10 1023 30.21 852 25.16 17.5 63.5 51 7.4 45.3
23:15 1022 30.18 852 25.16 16.9 62.5 52 7.1 44.7
23:20 1022 30.18 851 25.13 16.9 62.4 50 6.5 43.6
23:25 1022 30.18 851 25.13 17.1 62.9 49 6.6 43.8
23:30 1022 30.18 851 25.13 17.1 62.7 50 6.7 44.1
23:35 1022 30.18 851 25.13 17 62.5 51 6.9 44.5
23:40 1022 30.18 851 25.13 16.9 62.3 50 6.6 43.9
23:45 1022 30.18 851 25.13 17 62.5 51 6.8 44.3
23:50 1022 30.18 851 25.13 17 62.6 50 6.7 44
23:55 1022 30.18 852 25.16 17 62.7 52 7.1 44.8
24:00 1022 30.18 852 25.16 17 62.6 51 6.9 44.4